Главная страница
METAR-TAF:

METAR-TAF

Аэропорты :

Нукус, Узбекистан

широта: 42-28-48N, долгота: 059-37-48E, высота над уровнем моря: м

Текущие метеонаблюдения

Эта сводка был подготовлена 36 минут назад, в 19:00 UTC
Ветер 8 Узел от северно-северо-западный
Температура 10°C
Влажность 43%
Давление 1031 hPa
Видимость 10 км и более
Нет облачности ниже 1500 м, и нет кучево-дождевой облачности

METAR: UTNN 261900Z 33008KT CAVOK 10/M02 Q1031 R33/CLRD60 NOSIG

Время: 00:36 (19:36 UTC)

Прогноз

Эта сводка был подготовлена 2 часа и 36 минут назад, в 17:00 UTC
Прогноз действительный с 26-го 18 UTC до 27-го 18 UTC
Ветер 4 Узел переменных направлений
Видимость 10 км и более
Нет облачности ниже 1500 м, и нет кучево-дождевой облачности
временами
С 27-го 06 UTC до 27-го 14 UTC
Ветер 10 Узел от северо-восточный с порывами до 20 Узел

TAF: UTNN 261700Z 2618/2718 VRB04KT CAVOK TEMPO 2706/2714 04010G20KT

Метеонаблюдения и прогнозы для более 4000 аэропортов (сводки METAR и TAF).

Имеющиеся станции представлены на карте желтыми и красными точками.

Чтобы увидеть название станции, наведите на нее мышь.

Затем щелкните, чтобы увидеть метеонаблюдения и метеопрогнозы.

Управление картой: чтобы увеличить масштаб, щелкните зеленые кнопки с черным крестиком; чтобы уменьшить масштаб, щелкните зеленую кнопку с тире; для просмотра соседних карт щелкайте зеленые стрелки.


METAR-TAF: